createdAt,value
2019-03-04T00:03:40.795Z,3.83
2019-03-04T00:09:06.357Z,3.57
2019-03-04T00:14:31.779Z,3.00
2019-03-04T00:19:55.677Z,3.40
2019-03-04T00:25:20.130Z,3.87
2019-03-04T00:30:44.949Z,3.47
2019-03-04T00:36:09.395Z,3.87
2019-03-04T00:41:34.609Z,3.80
2019-03-04T00:46:58.994Z,3.47
2019-03-04T00:52:22.767Z,3.97
2019-03-04T00:57:46.573Z,4.53
2019-03-04T01:03:11.368Z,3.20
2019-03-04T01:08:35.849Z,2.97
2019-03-04T01:14:00.353Z,4.13
2019-03-04T01:19:25.097Z,3.40
2019-03-04T01:24:49.516Z,3.23
2019-03-04T01:30:22.348Z,3.80
2019-03-04T01:35:46.792Z,3.23
2019-03-04T01:41:10.667Z,3.60
2019-03-04T01:46:34.535Z,3.67
2019-03-04T01:51:58.816Z,3.10
2019-03-04T01:57:23.094Z,3.43
2019-03-04T02:02:47.345Z,3.33
2019-03-04T02:08:11.218Z,3.37
2019-03-04T02:13:35.848Z,2.97
2019-03-04T02:19:00.928Z,3.10
2019-03-04T02:24:26.430Z,3.90
2019-03-04T02:29:50.603Z,3.47
2019-03-04T02:35:15.408Z,3.27
2019-03-04T02:40:39.486Z,2.83
2019-03-04T02:46:03.524Z,3.20
2019-03-04T02:51:27.162Z,3.80
2019-03-04T02:56:50.820Z,4.07
2019-03-04T03:02:15.296Z,3.97
2019-03-04T03:07:40.061Z,3.50
2019-03-04T03:13:05.302Z,3.90
2019-03-04T03:18:29.595Z,3.40
2019-03-04T03:23:53.318Z,3.90
2019-03-04T03:29:17.375Z,3.90
2019-03-04T03:34:41.278Z,3.33
2019-03-04T03:40:07.474Z,3.37
2019-03-04T03:45:32.307Z,3.93
2019-03-04T03:50:56.679Z,3.43
2019-03-04T03:56:20.773Z,3.70
2019-03-04T04:01:45.415Z,3.53
2019-03-04T04:07:09.089Z,4.80
2019-03-04T04:12:32.716Z,3.80
2019-03-04T04:17:57.952Z,3.87
2019-03-04T04:23:22.363Z,4.83
2019-03-04T04:28:46.200Z,3.33
2019-03-04T04:34:10.152Z,3.70
2019-03-04T04:39:34.178Z,3.70
2019-03-04T04:44:57.837Z,3.97
2019-03-04T04:50:22.633Z,3.63
2019-03-04T04:55:47.487Z,3.73
2019-03-04T05:01:12.271Z,2.93
2019-03-04T05:06:37.262Z,4.17
2019-03-04T05:12:02.103Z,3.00
2019-03-04T05:17:26.775Z,2.87
2019-03-04T05:22:50.662Z,3.73
2019-03-04T05:28:14.613Z,3.37
2019-03-04T05:33:39.833Z,3.70
2019-03-04T05:39:05.469Z,3.73
2019-03-04T05:44:30.728Z,3.60
2019-03-04T05:49:55.432Z,3.60
2019-03-04T05:55:20.396Z,3.90
2019-03-04T06:00:45.118Z,4.47
2019-03-04T06:06:09.623Z,3.57
2019-03-04T06:11:33.266Z,4.17
2019-03-04T06:16:57.994Z,3.93
2019-03-04T06:22:22.664Z,4.00
2019-03-04T06:27:46.503Z,3.93
2019-03-04T06:33:11.280Z,3.20
2019-03-04T06:38:35.469Z,3.00
2019-03-04T06:43:59.049Z,3.70
2019-03-04T06:49:24.270Z,3.50
2019-03-04T06:54:58.045Z,3.40
2019-03-04T07:00:43.610Z,2.90
2019-03-04T07:06:08.164Z,3.37
2019-03-04T07:11:32.001Z,3.33
2019-03-04T07:16:56.752Z,3.10
2019-03-04T07:22:21.014Z,3.17
2019-03-04T07:27:45.842Z,2.90
2019-03-04T07:33:09.720Z,2.93
2019-03-04T07:38:42.782Z,2.60
2019-03-04T07:44:06.935Z,2.60
2019-03-04T07:49:30.869Z,3.03
2019-03-04T07:54:54.728Z,2.63
2019-03-04T08:00:19.084Z,3.03
2019-03-04T08:05:43.708Z,2.90
2019-03-04T08:11:30.950Z,2.60
2019-03-04T08:16:54.659Z,2.70
2019-03-04T08:22:18.699Z,2.33
2019-03-04T08:27:42.786Z,2.50
2019-03-04T08:33:07.354Z,2.60
2019-03-04T08:38:31.390Z,2.47
2019-03-04T08:43:55.105Z,2.60
2019-03-04T08:49:19.701Z,2.43
2019-03-04T08:54:45.268Z,2.60
2019-03-04T09:00:13.339Z,2.20
2019-03-04T09:05:37.563Z,2.20
2019-03-04T09:11:01.588Z,2.50
2019-03-04T09:16:25.231Z,2.37
2019-03-04T09:21:50.383Z,2.57
2019-03-04T09:27:14.244Z,2.50
2019-03-04T09:32:38.026Z,2.40
2019-03-04T09:38:03.103Z,2.50
2019-03-04T09:43:28.038Z,2.00
2019-03-04T09:48:51.870Z,2.33
2019-03-04T09:54:16.576Z,2.50
2019-03-04T09:59:41.044Z,2.40
2019-03-04T10:05:17.409Z,2.53
2019-03-04T10:11:23.001Z,1.97
2019-03-04T10:17:12.133Z,2.33
2019-03-04T10:22:45.175Z,2.10
2019-03-04T10:29:02.132Z,2.73
2019-03-04T10:35:03.309Z,2.33
2019-03-04T10:40:45.674Z,2.33
2019-03-04T10:46:25.398Z,2.20
2019-03-04T10:51:50.167Z,1.90
2019-03-04T10:57:13.798Z,2.10
2019-03-04T11:02:38.380Z,2.12
2019-03-04T11:08:02.874Z,1.60
2019-03-04T11:13:26.526Z,1.77
2019-03-04T11:18:50.406Z,1.45
2019-03-04T11:24:14.654Z,1.15
2019-03-04T11:29:39.281Z,1.50
2019-03-04T11:35:03.861Z,1.63
2019-03-04T11:40:30.096Z,1.63
2019-03-04T11:45:53.958Z,1.90
2019-03-04T11:51:18.961Z,1.63
2019-03-04T11:56:42.743Z,1.00
2019-03-04T12:02:12.336Z,0.90
2019-03-04T12:07:36.999Z,1.03
2019-03-04T12:13:00.657Z,1.43
2019-03-04T12:18:25.777Z,0.93
2019-03-04T12:23:49.844Z,0.90
2019-03-04T12:29:15.485Z,0.97
2019-03-04T12:34:39.701Z,0.87
2019-03-04T12:40:05.938Z,1.10
2019-03-04T12:45:34.366Z,1.10
2019-03-04T12:50:56.440Z,0.90
2019-03-04T12:56:19.948Z,1.13
2019-03-04T13:01:43.809Z,1.03
2019-03-04T13:07:08.427Z,0.87
2019-03-04T13:12:33.141Z,1.00
2019-03-04T13:17:59.120Z,1.97
2019-03-04T13:23:23.524Z,1.23
2019-03-04T13:28:47.841Z,0.80
2019-03-04T13:34:12.610Z,1.20
2019-03-04T13:39:36.374Z,1.10
2019-03-04T13:45:00.939Z,1.30
2019-03-04T13:50:25.414Z,0.90
2019-03-04T13:55:48.895Z,0.70
2019-03-04T14:01:13.457Z,1.10
2019-03-04T14:06:37.832Z,1.37
2019-03-04T14:12:02.520Z,1.17
2019-03-04T14:17:28.037Z,0.90
2019-03-04T14:22:57.621Z,1.20
2019-03-04T14:28:18.604Z,1.20
2019-03-04T14:33:43.315Z,1.30
2019-03-04T14:39:12.935Z,1.40
2019-03-04T14:44:36.564Z,1.12
2019-03-04T14:50:09.503Z,1.10
2019-03-04T14:55:27.917Z,1.17
2019-03-04T15:00:52.529Z,1.20
2019-03-04T15:06:16.964Z,1.00
2019-03-04T15:11:41.413Z,1.70
2019-03-04T15:17:05.048Z,1.50
2019-03-04T15:22:35.020Z,2.37
2019-03-04T15:27:56.197Z,1.60
2019-03-04T15:33:19.851Z,1.60
2019-03-04T15:38:44.620Z,1.40
2019-03-04T15:44:09.246Z,1.33
2019-03-04T15:49:34.545Z,1.50
2019-03-04T15:55:00.543Z,1.10
2019-03-04T16:00:25.679Z,1.67
2019-03-04T16:05:50.270Z,1.40
2019-03-04T16:11:14.029Z,1.20
2019-03-04T16:16:38.660Z,1.30
2019-03-04T16:22:02.631Z,1.53
2019-03-04T16:27:26.423Z,1.00
2019-03-04T16:32:51.069Z,1.30
2019-03-04T16:38:15.099Z,1.40
2019-03-04T16:43:39.158Z,1.20
2019-03-04T16:49:03.923Z,1.47
2019-03-04T16:54:29.386Z,1.10
2019-03-04T16:59:54.474Z,1.20
2019-03-04T17:05:19.422Z,1.30
2019-03-04T17:10:44.457Z,1.77
2019-03-04T17:16:08.904Z,1.10
2019-03-04T17:21:33.044Z,1.07
2019-03-04T17:26:57.008Z,1.60
2019-03-04T17:32:21.803Z,1.67
2019-03-04T17:37:45.667Z,1.03
2019-03-04T17:43:09.590Z,1.50
2019-03-04T17:48:33.762Z,1.67
2019-03-04T17:53:58.087Z,2.10
2019-03-04T17:59:21.852Z,1.93
2019-03-04T18:04:47.076Z,1.60
2019-03-04T18:10:13.217Z,1.97
2019-03-04T18:15:36.866Z,2.10
2019-03-04T18:21:01.154Z,2.10
2019-03-04T18:26:29.806Z,1.80
2019-03-04T18:32:38.090Z,1.90
2019-03-04T18:38:29.027Z,1.93
2019-03-04T18:43:59.416Z,2.60
2019-03-04T18:49:25.154Z,2.17
2019-03-04T18:54:49.867Z,2.53
2019-03-04T19:00:15.752Z,2.27
2019-03-04T19:05:39.810Z,2.50
2019-03-04T19:11:04.527Z,2.43
2019-03-04T19:16:29.487Z,2.17
2019-03-04T19:21:53.869Z,2.63
2019-03-04T19:27:18.561Z,2.10
2019-03-04T19:32:43.920Z,3.20
2019-03-04T19:38:07.873Z,2.20
2019-03-04T19:43:33.112Z,2.57
2019-03-04T19:48:58.016Z,2.87
2019-03-04T19:54:22.010Z,2.40
2019-03-04T19:59:46.355Z,2.10
2019-03-04T20:05:10.954Z,1.93
2019-03-04T20:10:36.584Z,2.00
2019-03-04T20:16:00.638Z,2.60
2019-03-04T20:21:25.429Z,2.50
2019-03-04T20:26:49.609Z,2.17
2019-03-04T20:32:14.533Z,2.40
2019-03-04T20:37:39.211Z,2.80
2019-03-04T20:43:03.843Z,2.40
2019-03-04T20:48:28.535Z,2.67
2019-03-04T20:53:52.507Z,3.10
2019-03-04T20:59:16.377Z,3.07
2019-03-04T21:04:41.385Z,2.20
2019-03-04T21:10:08.212Z,2.73
2019-03-04T21:15:32.340Z,2.83
2019-03-04T21:20:57.040Z,3.00
2019-03-04T21:26:23.966Z,3.07
2019-03-04T21:32:07.373Z,3.13
2019-03-04T21:37:52.368Z,2.57
2019-03-04T21:43:22.438Z,2.70
2019-03-04T21:48:53.724Z,3.27
2019-03-04T21:54:18.934Z,2.90
2019-03-04T21:59:43.495Z,3.27
2019-03-04T22:05:11.737Z,3.83
2019-03-04T22:10:37.365Z,3.40
2019-03-04T22:16:02.372Z,3.33
2019-03-04T22:21:26.344Z,3.33
2019-03-04T22:26:50.975Z,3.10
2019-03-04T22:32:15.868Z,3.57
2019-03-04T22:37:40.600Z,3.60
2019-03-04T22:43:05.469Z,3.03
2019-03-04T22:48:29.723Z,2.80
2019-03-04T22:53:54.429Z,2.77
2019-03-04T22:59:18.762Z,2.90
2019-03-04T23:05:06.785Z,3.27
2019-03-04T23:10:57.035Z,3.40
2019-03-04T23:16:27.752Z,2.97
2019-03-04T23:21:51.720Z,3.07
2019-03-04T23:27:16.090Z,3.33
2019-03-04T23:32:41.775Z,3.33
2019-03-04T23:38:06.137Z,3.60
2019-03-04T23:43:30.686Z,3.70
2019-03-04T23:48:55.120Z,3.47
2019-03-04T23:54:19.031Z,3.40
2019-03-04T23:59:43.723Z,3.93
